createdAt,value
2023-02-11T00:01:33.038Z,15.20
2023-02-11T00:04:02.479Z,14.50
2023-02-11T00:06:32.818Z,16.10
2023-02-11T00:09:01.182Z,15.90
2023-02-11T00:11:30.660Z,16.30
2023-02-11T00:14:01.327Z,16.20
2023-02-11T00:16:31.414Z,17.30
2023-02-11T00:19:03.162Z,16.20
2023-02-11T00:21:31.259Z,15.20
2023-02-11T00:24:02.327Z,15.80
2023-02-11T00:26:35.435Z,16.60
2023-02-11T00:29:04.729Z,17.00
2023-02-11T00:31:34.172Z,16.70
2023-02-11T00:34:02.735Z,17.00
2023-02-11T00:36:31.009Z,17.60
2023-02-11T00:39:00.049Z,16.50
2023-02-11T00:41:29.792Z,17.70
2023-02-11T00:44:01.410Z,18.50
2023-02-11T00:46:29.781Z,18.40
2023-02-11T00:48:58.120Z,17.30
2023-02-11T00:51:28.171Z,18.40
2023-02-11T00:53:56.462Z,19.10
2023-02-11T00:56:25.267Z,19.50
2023-02-11T00:58:54.071Z,21.00
2023-02-11T01:01:22.476Z,19.60
2023-02-11T01:03:50.931Z,20.80
2023-02-11T01:06:19.924Z,21.70
2023-02-11T01:08:48.072Z,24.30
2023-02-11T01:11:18.905Z,21.20
2023-02-11T01:13:48.697Z,21.10
2023-02-11T01:16:18.981Z,21.70
2023-02-11T01:18:47.569Z,22.40
2023-02-11T01:21:19.749Z,23.00
2023-02-11T01:23:47.905Z,24.20
2023-02-11T01:26:16.270Z,24.20
2023-02-11T01:28:44.784Z,24.40
2023-02-11T01:31:13.095Z,25.10
2023-02-11T01:33:41.177Z,24.10
2023-02-11T01:36:10.988Z,24.10
2023-02-11T01:38:41.047Z,23.90
2023-02-11T01:41:12.835Z,25.60
2023-02-11T01:43:45.124Z,24.60
2023-02-11T01:48:47.337Z,23.40
2023-02-11T01:51:20.799Z,24.90
2023-02-11T01:54:08.592Z,24.60
2023-02-11T01:57:01.262Z,24.40
2023-02-11T02:02:08.486Z,24.50
2023-02-11T02:04:52.331Z,25.60
2023-02-11T02:07:32.851Z,22.80
2023-02-11T02:10:09.163Z,24.40
2023-02-11T02:12:37.664Z,24.20
2023-02-11T02:15:20.911Z,24.80
2023-02-11T02:18:17.362Z,26.80
2023-02-11T02:21:08.630Z,26.40
2023-02-11T02:24:05.058Z,26.20
2023-02-11T02:26:58.230Z,27.90
2023-02-11T02:29:38.611Z,27.20
2023-02-11T02:33:07.979Z,26.30
2023-02-11T02:36:06.857Z,25.30
2023-02-11T02:39:04.284Z,26.50
2023-02-11T02:41:35.301Z,24.00
2023-02-11T02:44:03.719Z,26.30
2023-02-11T02:46:34.533Z,24.10
2023-02-11T02:49:03.514Z,24.40
2023-02-11T02:51:50.822Z,25.60
2023-02-11T02:54:46.144Z,23.90
2023-02-11T02:57:30.195Z,24.00
2023-02-11T03:00:36.079Z,22.80
2023-02-11T03:03:10.310Z,22.60
2023-02-11T03:05:47.625Z,22.30
2023-02-11T03:08:29.525Z,22.30
2023-02-11T03:10:59.340Z,24.10
2023-02-11T03:13:33.788Z,22.10
2023-02-11T03:16:10.718Z,20.70
2023-02-11T03:18:42.829Z,21.70
2023-02-11T03:21:12.531Z,20.80
2023-02-11T03:23:47.835Z,19.20
2023-02-11T03:26:26.946Z,19.50
2023-02-11T03:29:25.238Z,19.10
2023-02-11T03:32:17.684Z,17.60
2023-02-11T03:34:57.673Z,17.50
2023-02-11T03:37:41.024Z,18.60
2023-02-11T03:40:17.248Z,16.90
2023-02-11T03:42:52.321Z,16.90
2023-02-11T03:45:23.761Z,16.40
2023-02-11T03:47:57.336Z,14.10
2023-02-11T03:50:26.988Z,14.90
2023-02-11T03:52:56.977Z,15.90
2023-02-11T03:55:26.814Z,13.60
2023-02-11T03:57:54.933Z,14.50
2023-02-11T04:00:34.337Z,12.10
2023-02-11T04:03:03.925Z,11.80
2023-02-11T04:05:32.796Z,12.90
2023-02-11T04:08:01.472Z,12.70
2023-02-11T04:10:29.994Z,11.30
2023-02-11T04:12:58.036Z,12.60
2023-02-11T04:15:26.338Z,12.30
2023-02-11T04:17:54.661Z,11.20
2023-02-11T04:20:22.945Z,10.50
2023-02-11T04:22:51.126Z,11.10
2023-02-11T04:25:19.250Z,9.80
2023-02-11T04:27:47.600Z,9.70
2023-02-11T04:30:15.655Z,10.30
2023-02-11T04:32:43.778Z,9.50
2023-02-11T04:35:11.787Z,8.90
2023-02-11T04:37:40.114Z,9.60
2023-02-11T04:40:08.935Z,8.70
2023-02-11T04:42:36.941Z,8.90
2023-02-11T04:45:05.210Z,7.90
2023-02-11T04:47:34.055Z,8.10
2023-02-11T04:50:02.184Z,8.10
2023-02-11T04:52:30.633Z,8.00
2023-02-11T04:54:59.016Z,7.90
2023-02-11T04:57:27.066Z,7.90
2023-02-11T04:59:55.079Z,8.50
2023-02-11T05:02:23.184Z,8.10
2023-02-11T05:04:51.298Z,8.40
2023-02-11T05:07:19.445Z,7.70
2023-02-11T05:09:47.491Z,7.30
2023-02-11T05:12:15.612Z,8.30
2023-02-11T05:14:43.653Z,7.40
2023-02-11T05:17:11.661Z,7.20
2023-02-11T05:19:39.789Z,7.00
2023-02-11T05:22:08.124Z,6.50
2023-02-11T05:24:36.143Z,7.10
2023-02-11T05:27:04.518Z,8.00
2023-02-11T05:29:33.142Z,6.40
2023-02-11T05:32:01.264Z,5.70
2023-02-11T05:34:29.364Z,6.40
2023-02-11T05:36:57.416Z,7.40
2023-02-11T05:39:25.509Z,6.30
2023-02-11T05:41:53.670Z,5.70
2023-02-11T05:44:21.734Z,6.40
2023-02-11T05:46:49.953Z,5.50
2023-02-11T05:49:18.437Z,5.40
2023-02-11T05:51:47.057Z,5.30
2023-02-11T05:54:15.460Z,5.20
2023-02-11T05:56:44.898Z,5.50
2023-02-11T05:59:16.289Z,5.00
2023-02-11T06:01:44.454Z,5.10
2023-02-11T06:04:12.597Z,4.90
2023-02-11T06:06:40.677Z,4.50
2023-02-11T06:09:10.912Z,4.50
2023-02-11T06:11:38.988Z,4.60
2023-02-11T06:14:07.150Z,5.10
2023-02-11T06:16:35.250Z,4.70
2023-02-11T06:19:03.851Z,5.00
2023-02-11T06:21:42.853Z,4.90
2023-02-11T06:24:12.984Z,4.40
2023-02-11T06:26:41.346Z,5.10
2023-02-11T06:29:10.059Z,5.50
2023-02-11T06:31:41.798Z,6.00
2023-02-11T06:34:10.518Z,5.10
2023-02-11T06:36:39.978Z,5.30
2023-02-11T06:39:08.665Z,5.50
2023-02-11T06:41:36.856Z,5.40
2023-02-11T06:44:05.778Z,5.50
2023-02-11T06:46:33.835Z,5.00
2023-02-11T06:49:01.970Z,5.20
2023-02-11T06:51:30.348Z,5.70
2023-02-11T06:53:58.614Z,4.70
2023-02-11T06:56:27.686Z,5.50
2023-02-11T06:58:56.718Z,4.80
2023-02-11T07:01:27.034Z,5.10
2023-02-11T07:03:55.238Z,5.00
2023-02-11T07:06:27.754Z,5.20
2023-02-11T07:08:56.814Z,5.40
2023-02-11T07:11:29.101Z,5.80
2023-02-11T07:14:08.445Z,5.10
2023-02-11T07:16:38.441Z,4.90
2023-02-11T07:19:06.766Z,5.90
2023-02-11T07:21:35.244Z,5.90
2023-02-11T07:24:10.673Z,5.40
2023-02-11T07:26:39.253Z,5.20
2023-02-11T07:29:07.349Z,4.80
2023-02-11T07:31:35.620Z,5.60
2023-02-11T07:34:04.233Z,5.40
2023-02-11T07:36:32.557Z,5.20
2023-02-11T07:39:00.717Z,5.70
2023-02-11T07:41:28.942Z,5.90
2023-02-11T07:43:57.055Z,5.60
2023-02-11T07:46:27.909Z,5.40
2023-02-11T07:48:56.371Z,5.30
2023-02-11T07:51:29.788Z,5.00
2023-02-11T07:53:59.835Z,5.70
2023-02-11T07:56:29.462Z,5.90
2023-02-11T07:59:01.143Z,4.80
2023-02-11T08:01:30.501Z,4.10
2023-02-11T08:03:59.953Z,4.50
2023-02-11T08:06:31.061Z,4.10
2023-02-11T08:09:09.066Z,3.60
2023-02-11T08:11:37.267Z,4.00
2023-02-11T08:14:05.672Z,3.80
2023-02-11T08:16:35.651Z,3.30
2023-02-11T08:19:07.930Z,4.00
2023-02-11T08:24:04.281Z,3.00
2023-02-11T08:26:37.408Z,3.50
2023-02-11T08:29:12.103Z,3.30
2023-02-11T08:31:42.582Z,2.70
2023-02-11T08:34:14.225Z,3.50
2023-02-11T08:36:43.560Z,3.10
2023-02-11T08:39:20.309Z,2.60
2023-02-11T08:41:52.057Z,2.80
2023-02-11T08:44:21.304Z,2.60
2023-02-11T08:46:50.729Z,2.60
2023-02-11T08:49:19.675Z,1.90
2023-02-11T08:51:48.817Z,2.00
2023-02-11T08:54:16.999Z,2.50
2023-02-11T08:56:45.580Z,2.10
2023-02-11T08:59:15.718Z,2.20
2023-02-11T09:01:44.440Z,1.80
2023-02-11T09:04:13.433Z,2.40
2023-02-11T09:06:41.530Z,1.80
2023-02-11T09:09:13.675Z,1.90
2023-02-11T09:11:43.365Z,1.80
2023-02-11T09:14:18.509Z,1.90
2023-02-11T09:16:46.864Z,1.40
2023-02-11T09:19:15.153Z,1.80
2023-02-11T09:21:43.336Z,2.00
2023-02-11T09:24:12.507Z,1.50
2023-02-11T09:26:42.053Z,1.80
2023-02-11T09:29:10.291Z,2.30
2023-02-11T09:31:38.677Z,1.70
2023-02-11T09:34:06.924Z,1.50
2023-02-11T09:36:38.629Z,1.60
2023-02-11T09:39:11.650Z,1.50
2023-02-11T09:42:01.718Z,1.40
2023-02-11T09:44:34.030Z,1.30
2023-02-11T09:47:06.377Z,1.60
2023-02-11T09:52:47.482Z,1.60
2023-02-11T09:55:29.382Z,1.40
2023-02-11T09:57:58.542Z,2.90
2023-02-11T10:00:47.221Z,1.90
2023-02-11T10:03:33.875Z,1.60
2023-02-11T10:06:11.140Z,1.70
2023-02-11T10:08:50.778Z,2.10
2023-02-11T10:11:47.915Z,2.40
2023-02-11T10:14:15.913Z,2.80
2023-02-11T10:17:04.752Z,2.70
2023-02-11T10:20:06.422Z,3.10
2023-02-11T10:22:45.536Z,2.80
2023-02-11T10:25:45.178Z,3.50
2023-02-11T10:28:24.707Z,3.70
2023-02-11T10:30:59.576Z,3.30
2023-02-11T10:33:31.502Z,3.90
2023-02-11T10:35:59.890Z,3.90
2023-02-11T10:38:28.448Z,3.90
2023-02-11T10:40:56.641Z,3.70
2023-02-11T10:43:29.187Z,4.20
2023-02-11T10:45:58.984Z,3.90
2023-02-11T10:48:49.577Z,4.20
2023-02-11T10:51:23.569Z,4.40
2023-02-11T10:54:21.264Z,3.60
2023-02-11T10:56:52.962Z,4.10
2023-02-11T10:59:47.262Z,3.30
2023-02-11T11:02:31.998Z,4.00
2023-02-11T11:05:16.898Z,4.40
2023-02-11T11:08:08.721Z,3.40
2023-02-11T11:10:44.061Z,3.10
2023-02-11T11:13:24.284Z,3.90
2023-02-11T11:16:12.482Z,3.90
2023-02-11T11:18:43.855Z,3.50
2023-02-11T11:21:22.458Z,3.30
2023-02-11T11:23:57.647Z,3.10
2023-02-11T11:26:41.383Z,3.30
2023-02-11T11:29:26.899Z,3.00
2023-02-11T11:31:59.539Z,3.80
2023-02-11T11:34:35.414Z,3.90
2023-02-11T11:37:18.805Z,3.50
2023-02-11T11:40:16.174Z,3.70
2023-02-11T11:42:44.454Z,3.40
2023-02-11T11:45:15.733Z,3.20
2023-02-11T11:47:59.233Z,3.60
2023-02-11T11:50:33.527Z,3.50
2023-02-11T11:53:09.477Z,3.70
2023-02-11T11:55:53.401Z,3.10
2023-02-11T11:58:23.220Z,3.90
2023-02-11T12:01:19.811Z,3.00
2023-02-11T12:04:25.362Z,4.10
2023-02-11T12:07:08.451Z,3.00
2023-02-11T12:09:51.912Z,3.20
2023-02-11T12:12:23.156Z,4.80
2023-02-11T12:15:04.396Z,3.60
2023-02-11T12:17:47.472Z,3.40
2023-02-11T12:20:26.159Z,3.30
2023-02-11T12:23:13.083Z,4.20
2023-02-11T12:25:56.915Z,3.20
2023-02-11T12:28:46.748Z,3.20
2023-02-11T12:31:47.021Z,4.10
2023-02-11T12:34:43.477Z,4.00
2023-02-11T12:37:17.376Z,3.00
2023-02-11T12:40:11.266Z,3.30
2023-02-11T12:43:02.556Z,4.30
2023-02-11T12:46:10.253Z,3.70
2023-02-11T12:48:55.108Z,3.30
2023-02-11T12:51:52.386Z,4.00
2023-02-11T12:54:26.569Z,3.30
2023-02-11T12:56:59.362Z,3.50
2023-02-11T12:59:33.447Z,3.60
2023-02-11T13:02:12.104Z,3.60
2023-02-11T13:04:48.020Z,3.70
2023-02-11T13:07:23.094Z,5.00
2023-02-11T13:10:05.475Z,4.30
2023-02-11T13:15:22.263Z,3.70
2023-02-11T13:18:01.183Z,5.90
2023-02-11T13:21:07.002Z,5.20
2023-02-11T13:23:50.364Z,4.30
2023-02-11T13:26:27.495Z,4.70
2023-02-11T13:29:09.522Z,4.30
2023-02-11T13:31:37.746Z,5.00
2023-02-11T13:34:24.951Z,7.00
2023-02-11T13:36:57.815Z,5.50
2023-02-11T13:39:25.939Z,4.10
2023-02-11T13:42:03.437Z,5.70
2023-02-11T13:44:34.312Z,3.90
2023-02-11T13:47:05.571Z,4.30
2023-02-11T13:49:40.803Z,4.30
2023-02-11T13:52:24.594Z,6.70
2023-02-11T13:54:55.995Z,5.00
2023-02-11T13:57:34.328Z,4.50
2023-02-11T14:00:09.881Z,4.30
2023-02-11T14:02:57.285Z,4.00
2023-02-11T14:05:51.892Z,3.60
2023-02-11T14:08:41.638Z,4.60
2023-02-11T14:11:44.822Z,4.10
2023-02-11T14:14:25.507Z,5.20
2023-02-11T14:16:59.786Z,5.90
2023-02-11T14:19:35.903Z,3.90
2023-02-11T14:22:05.643Z,4.30
2023-02-11T14:24:34.917Z,4.50
2023-02-11T14:27:21.550Z,4.80
2023-02-11T14:30:01.766Z,4.30
2023-02-11T14:32:49.222Z,5.60
2023-02-11T14:35:43.869Z,5.30
2023-02-11T14:38:50.166Z,6.50
2023-02-11T14:41:23.616Z,5.60
2023-02-11T14:43:58.730Z,7.00
2023-02-11T14:46:30.797Z,4.00
2023-02-11T14:49:02.186Z,4.70
2023-02-11T14:51:38.858Z,4.40
2023-02-11T14:54:16.998Z,4.70
2023-02-11T14:57:09.380Z,5.00
2023-02-11T14:59:37.598Z,4.40
2023-02-11T15:02:23.906Z,4.40
2023-02-11T15:04:52.030Z,3.90
2023-02-11T15:07:20.222Z,3.90
2023-02-11T15:09:53.768Z,4.50
2023-02-11T15:12:27.623Z,8.50
2023-02-11T15:14:59.239Z,4.40
2023-02-11T15:17:31.798Z,4.40
2023-02-11T15:20:02.400Z,10.50
2023-02-11T15:22:36.600Z,8.00
2023-02-11T15:25:07.952Z,4.10
2023-02-11T15:27:58.549Z,5.40
2023-02-11T15:30:31.094Z,5.70
2023-02-11T15:33:03.187Z,6.60
2023-02-11T15:35:37.873Z,5.90
2023-02-11T15:38:06.069Z,5.40
2023-02-11T15:40:37.345Z,3.90
2023-02-11T15:43:08.315Z,4.90
2023-02-11T15:45:41.446Z,4.60
2023-02-11T15:48:20.626Z,3.90
2023-02-11T15:50:53.983Z,7.60
2023-02-11T15:53:27.834Z,4.30
2023-02-11T15:56:29.899Z,5.10
2023-02-11T15:59:00.933Z,4.70
2023-02-11T16:01:34.049Z,3.70
2023-02-11T16:04:04.081Z,4.00
2023-02-11T16:06:40.416Z,4.20
2023-02-11T16:09:08.868Z,4.00
2023-02-11T16:11:55.080Z,3.80
2023-02-11T16:14:35.406Z,4.30
2023-02-11T16:17:09.206Z,4.90
2023-02-11T16:19:45.100Z,4.40
2023-02-11T16:22:19.632Z,5.00
2023-02-11T16:24:52.579Z,4.00
2023-02-11T16:27:38.065Z,2.70
2023-02-11T16:30:18.272Z,2.20
2023-02-11T16:32:46.409Z,2.20
2023-02-11T16:35:14.454Z,2.60
2023-02-11T16:37:42.450Z,2.80
2023-02-11T16:40:12.431Z,2.60
2023-02-11T16:42:40.917Z,2.60
2023-02-11T16:45:09.695Z,2.80
2023-02-11T16:47:41.053Z,2.50
2023-02-11T16:50:11.758Z,1.70
2023-02-11T16:52:40.092Z,1.40
2023-02-11T16:55:10.249Z,1.40
2023-02-11T16:57:38.298Z,1.40
2023-02-11T17:00:07.664Z,1.40
2023-02-11T17:02:38.233Z,1.40
2023-02-11T17:05:08.938Z,1.10
2023-02-11T17:07:37.002Z,1.30
2023-02-11T17:10:14.275Z,1.50
2023-02-11T17:12:42.281Z,1.40
2023-02-11T17:15:10.980Z,2.10
2023-02-11T17:17:39.125Z,1.70
2023-02-11T17:20:08.738Z,1.40
2023-02-11T17:22:36.789Z,1.70
2023-02-11T17:25:05.074Z,2.30
2023-02-11T17:27:33.505Z,1.80
2023-02-11T17:30:01.942Z,1.50
2023-02-11T17:32:30.065Z,1.30
2023-02-11T17:34:58.230Z,1.30
2023-02-11T17:37:26.354Z,2.60
2023-02-11T17:39:54.458Z,3.50
2023-02-11T17:42:22.570Z,1.30
2023-02-11T17:44:50.681Z,1.40
2023-02-11T17:47:18.713Z,1.20
2023-02-11T17:49:46.730Z,1.20
2023-02-11T17:52:15.096Z,1.10
2023-02-11T17:54:43.593Z,1.00
2023-02-11T17:57:13.049Z,1.10
2023-02-11T17:59:41.154Z,1.10
2023-02-11T18:02:12.489Z,0.80
2023-02-11T18:04:40.789Z,0.90
2023-02-11T18:07:09.119Z,1.20
2023-02-11T18:09:41.904Z,1.70
2023-02-11T18:12:11.094Z,2.00
2023-02-11T18:14:41.037Z,1.30
2023-02-11T18:17:09.343Z,1.60
2023-02-11T18:19:37.700Z,1.30
2023-02-11T18:22:05.911Z,1.40
2023-02-11T18:24:33.987Z,1.20
2023-02-11T18:27:02.325Z,1.10
2023-02-11T18:29:30.371Z,1.10
2023-02-11T18:31:58.487Z,1.10
2023-02-11T18:34:26.663Z,1.10
2023-02-11T18:36:54.735Z,1.20
2023-02-11T18:39:24.446Z,1.40
2023-02-11T18:41:56.855Z,1.10
2023-02-11T18:46:54.410Z,1.40
2023-02-11T18:49:22.649Z,1.20
2023-02-11T18:51:50.833Z,1.70
2023-02-11T18:54:19.399Z,1.20
2023-02-11T18:56:47.488Z,1.30
2023-02-11T18:59:16.067Z,1.90
2023-02-11T19:01:46.979Z,1.70
2023-02-11T19:04:19.953Z,1.40
2023-02-11T19:06:49.843Z,1.40
2023-02-11T19:09:19.925Z,1.70
2023-02-11T19:11:49.152Z,1.40
2023-02-11T19:14:31.463Z,1.60
2023-02-11T19:17:02.250Z,1.20
2023-02-11T19:19:33.243Z,1.40
2023-02-11T19:22:03.278Z,1.20
2023-02-11T19:24:31.431Z,0.80
2023-02-11T19:27:02.555Z,1.40
2023-02-11T19:29:35.377Z,1.50
2023-02-11T19:32:06.046Z,1.10
2023-02-11T19:34:41.163Z,1.50
2023-02-11T19:37:12.697Z,1.20
2023-02-11T19:39:42.754Z,1.70
2023-02-11T19:42:15.464Z,1.30
2023-02-11T19:44:43.894Z,1.40
2023-02-11T19:47:13.648Z,1.60
2023-02-11T19:49:41.680Z,1.70
2023-02-11T19:52:09.780Z,1.80
2023-02-11T19:54:38.304Z,1.50
2023-02-11T19:57:06.713Z,1.80
2023-02-11T19:59:35.775Z,2.00
2023-02-11T20:02:03.952Z,1.30
2023-02-11T20:04:32.312Z,1.80
2023-02-11T20:07:00.558Z,1.80
2023-02-11T20:09:31.077Z,1.50
2023-02-11T20:11:59.646Z,1.20
2023-02-11T20:14:28.230Z,1.50
2023-02-11T20:16:56.553Z,1.90
2023-02-11T20:19:24.716Z,1.40
2023-02-11T20:21:55.846Z,1.40
2023-02-11T20:24:25.348Z,1.20
2023-02-11T20:26:56.853Z,2.30
2023-02-11T20:29:25.841Z,2.10
2023-02-11T20:31:54.612Z,1.40
2023-02-11T20:34:22.979Z,1.40
2023-02-11T20:36:52.209Z,2.40
2023-02-11T20:39:22.516Z,2.30
2023-02-11T20:41:51.852Z,1.90
2023-02-11T20:44:23.998Z,1.60
2023-02-11T20:46:54.350Z,1.60
2023-02-11T20:49:24.341Z,1.50
2023-02-11T20:51:54.016Z,1.80
2023-02-11T20:54:24.348Z,1.60
2023-02-11T20:56:54.068Z,1.60
2023-02-11T20:59:22.806Z,1.50
2023-02-11T21:01:56.101Z,1.40
2023-02-11T21:04:27.505Z,1.60
2023-02-11T21:06:58.577Z,1.90
2023-02-11T21:09:30.332Z,1.30
2023-02-11T21:11:59.303Z,1.10
2023-02-11T21:14:28.298Z,1.50
2023-02-11T21:16:57.665Z,1.30
2023-02-11T21:19:26.171Z,1.50
2023-02-11T21:21:55.314Z,0.80
2023-02-11T21:24:23.888Z,1.10
2023-02-11T21:26:51.985Z,0.90
2023-02-11T21:51:28.430Z,0.70
2023-02-11T21:54:01.456Z,0.80
2023-02-11T21:56:31.814Z,0.80
2023-02-11T21:59:00.685Z,1.40
2023-02-11T22:01:31.846Z,1.10
2023-02-11T22:04:00.341Z,1.50
2023-02-11T22:06:31.269Z,1.30
2023-02-11T22:09:02.729Z,1.20
2023-02-11T22:11:30.827Z,1.20
2023-02-11T22:13:59.424Z,1.30
2023-02-11T22:16:30.046Z,1.50
2023-02-11T22:18:59.049Z,1.30
2023-02-11T22:21:27.199Z,1.40
2023-02-11T22:23:56.160Z,1.40
2023-02-11T22:26:26.075Z,1.80
2023-02-11T22:28:55.058Z,1.60
2023-02-11T22:31:30.467Z,1.50
2023-02-11T22:33:59.832Z,1.20
2023-02-11T22:36:31.375Z,1.50
2023-02-11T22:39:05.275Z,1.20
2023-02-11T22:41:34.148Z,1.90
2023-02-11T22:44:02.178Z,1.30
2023-02-11T22:46:30.695Z,0.80
2023-02-11T22:48:59.045Z,1.40
2023-02-11T22:51:29.172Z,1.20
2023-02-11T22:53:59.738Z,1.30
2023-02-11T22:56:29.887Z,1.20
2023-02-11T22:59:00.282Z,1.10
2023-02-11T23:01:29.812Z,1.00
2023-02-11T23:04:00.626Z,1.50
2023-02-11T23:06:28.921Z,1.20
2023-02-11T23:08:57.744Z,2.70
2023-02-11T23:11:28.814Z,4.30
2023-02-11T23:13:57.644Z,5.40
2023-02-11T23:16:31.924Z,5.00
2023-02-11T23:19:02.716Z,5.30
2023-02-11T23:21:33.138Z,3.00
2023-02-11T23:24:05.204Z,2.40
2023-02-11T23:26:33.759Z,2.00
2023-02-11T23:29:02.221Z,1.80
2023-02-11T23:31:37.963Z,2.10
2023-02-11T23:34:07.839Z,1.80
2023-02-11T23:36:36.783Z,1.60
2023-02-11T23:39:04.909Z,1.70
2023-02-11T23:41:33.057Z,1.70
2023-02-11T23:44:01.193Z,2.00
2023-02-11T23:46:29.529Z,1.80
2023-02-11T23:48:57.745Z,4.30
2023-02-11T23:51:25.846Z,4.20
2023-02-11T23:53:56.214Z,1.60
2023-02-11T23:56:27.621Z,2.00
2023-02-11T23:58:58.333Z,1.80
